createdAt,value
2022-08-11T00:00:11.160Z,19.89
2022-08-11T00:01:11.145Z,19.95
2022-08-11T00:02:15.121Z,20.00
2022-08-11T00:03:11.870Z,19.92
2022-08-11T00:04:11.131Z,19.87
2022-08-11T00:05:17.694Z,19.87
2022-08-11T00:06:11.699Z,19.94
2022-08-11T00:07:11.077Z,19.98
2022-08-11T00:08:11.082Z,19.95
2022-08-11T00:09:11.074Z,19.98
2022-08-11T00:10:11.699Z,19.98
2022-08-11T00:11:11.038Z,19.90
2022-08-11T00:12:11.024Z,19.90
2022-08-11T00:13:11.028Z,19.82
2022-08-11T00:14:12.027Z,19.75
2022-08-11T00:15:11.018Z,19.83
2022-08-11T00:16:10.986Z,19.72
2022-08-11T00:17:10.976Z,19.78
2022-08-11T00:18:11.227Z,19.72
2022-08-11T00:19:13.701Z,19.76
2022-08-11T00:20:16.197Z,19.76
2022-08-11T00:21:11.923Z,19.60
2022-08-11T00:22:11.249Z,19.68
2022-08-11T00:23:10.920Z,19.58
2022-08-11T00:24:10.905Z,19.68
2022-08-11T00:25:11.237Z,19.61
2022-08-11T00:26:13.699Z,19.58
2022-08-11T00:27:25.702Z,19.52
2022-08-11T00:28:11.695Z,19.61
2022-08-11T00:29:10.870Z,19.50
2022-08-11T00:30:11.237Z,19.47
2022-08-11T00:31:10.816Z,19.52
2022-08-11T00:32:11.701Z,19.46
2022-08-11T00:33:10.790Z,19.47
2022-08-11T00:34:13.704Z,19.52
2022-08-11T00:35:55.472Z,19.43
2022-08-11T00:36:11.776Z,19.35
2022-08-11T00:37:10.762Z,19.39
2022-08-11T00:38:10.734Z,19.35
2022-08-11T00:39:31.759Z,19.38
2022-08-11T00:40:10.721Z,19.40
2022-08-11T00:41:10.749Z,19.40
2022-08-11T00:42:11.196Z,19.25
2022-08-11T00:43:11.548Z,19.27
2022-08-11T00:44:12.196Z,19.31
2022-08-11T00:45:10.657Z,19.28
2022-08-11T00:46:11.221Z,19.21
2022-08-11T00:47:10.729Z,19.28
2022-08-11T00:48:11.201Z,19.31
2022-08-11T00:49:17.204Z,19.24
2022-08-11T00:50:10.603Z,19.23
2022-08-11T00:51:10.597Z,19.21
2022-08-11T00:52:10.752Z,19.16
2022-08-11T00:53:10.606Z,19.21
2022-08-11T00:54:10.565Z,19.21
2022-08-11T00:55:10.560Z,19.17
2022-08-11T00:56:10.545Z,19.16
2022-08-11T00:57:36.093Z,19.10
2022-08-11T00:58:11.533Z,19.13
2022-08-11T00:59:26.427Z,19.09
2022-08-11T01:00:11.496Z,19.09
2022-08-11T01:01:10.657Z,19.12
2022-08-11T01:02:13.204Z,19.15
2022-08-11T01:03:10.480Z,19.13
2022-08-11T01:04:11.201Z,19.13
2022-08-11T01:05:13.197Z,19.15
2022-08-11T01:06:10.425Z,19.06
2022-08-11T01:08:02.345Z,19.09
2022-08-11T01:08:12.692Z,19.12
2022-08-11T01:09:10.408Z,19.13
2022-08-11T01:10:14.202Z,19.20
2022-08-11T01:11:10.730Z,19.09
2022-08-11T01:12:13.205Z,19.12
2022-08-11T01:13:10.352Z,19.06
2022-08-11T01:14:10.355Z,19.07
2022-08-11T01:15:10.750Z,19.02
2022-08-11T01:16:11.227Z,19.05
2022-08-11T01:17:17.204Z,18.99
2022-08-11T01:18:11.213Z,18.96
2022-08-11T01:19:10.293Z,19.02
2022-08-11T01:20:47.406Z,18.94
2022-08-11T01:21:12.230Z,18.91
2022-08-11T01:22:11.213Z,18.93
2022-08-11T01:23:12.541Z,18.91
2022-08-11T01:24:12.209Z,18.79
2022-08-11T01:25:16.757Z,18.87
2022-08-11T01:26:10.215Z,18.86
2022-08-11T01:27:18.886Z,18.79
2022-08-11T01:28:17.716Z,18.76
2022-08-11T01:29:10.189Z,18.78
2022-08-11T01:30:12.704Z,18.74
2022-08-11T01:31:10.231Z,18.66
2022-08-11T01:32:10.165Z,18.72
2022-08-11T01:33:10.731Z,18.71
2022-08-11T01:34:10.127Z,18.76
2022-08-11T01:35:10.150Z,18.68
2022-08-11T01:36:10.140Z,18.74
2022-08-11T01:37:10.120Z,18.74
2022-08-11T01:38:10.093Z,18.60
2022-08-11T01:39:10.199Z,18.74
2022-08-11T01:40:16.709Z,18.66
2022-08-11T01:41:10.060Z,18.71
2022-08-11T01:42:10.702Z,18.79
2022-08-11T01:43:10.236Z,18.79
2022-08-11T01:44:12.937Z,18.71
2022-08-11T01:45:10.025Z,18.75
2022-08-11T01:46:10.021Z,18.68
2022-08-11T01:47:09.999Z,18.76
2022-08-11T01:48:10.719Z,18.72
2022-08-11T01:50:02.882Z,18.74
2022-08-11T01:50:11.033Z,18.65
2022-08-11T01:51:09.969Z,18.62
2022-08-11T01:52:11.707Z,18.68
2022-08-11T01:53:09.935Z,18.71
2022-08-11T01:54:09.934Z,18.62
2022-08-11T01:55:09.900Z,18.68
2022-08-11T01:56:12.710Z,18.57
2022-08-11T01:57:09.891Z,18.59
2022-08-11T01:58:09.866Z,18.65
2022-08-11T01:59:10.750Z,18.54
2022-08-11T02:00:09.867Z,18.59
2022-08-11T02:01:09.923Z,18.62
2022-08-11T02:02:09.847Z,18.62
2022-08-11T02:03:10.821Z,18.57
2022-08-11T02:04:09.808Z,18.62
2022-08-11T02:05:09.818Z,18.64
2022-08-11T02:06:09.791Z,18.59
2022-08-11T02:07:09.771Z,18.65
2022-08-11T02:08:11.672Z,18.60
2022-08-11T02:09:09.759Z,18.64
2022-08-11T02:10:09.754Z,18.64
2022-08-11T02:11:09.774Z,18.62
2022-08-11T02:12:09.717Z,18.57
2022-08-11T02:13:09.813Z,18.65
2022-08-11T02:14:10.236Z,18.66
2022-08-11T02:15:09.699Z,18.64
2022-08-11T02:16:09.766Z,18.62
2022-08-11T02:17:10.217Z,18.62
2022-08-11T02:18:09.641Z,18.62
2022-08-11T02:19:16.326Z,18.54
2022-08-11T02:20:10.215Z,18.47
2022-08-11T02:21:10.694Z,18.51
2022-08-11T02:22:24.230Z,18.46
2022-08-11T02:23:41.062Z,18.44
2022-08-11T02:24:10.586Z,18.41
2022-08-11T02:25:09.738Z,18.44
2022-08-11T02:26:10.213Z,18.36
2022-08-11T02:27:09.584Z,18.36
2022-08-11T02:28:09.552Z,18.34
2022-08-11T02:29:09.546Z,18.35
2022-08-11T02:30:09.526Z,18.39
2022-08-11T02:31:09.533Z,18.20
2022-08-11T02:32:24.610Z,18.25
2022-08-11T02:33:10.498Z,18.20
2022-08-11T02:34:10.229Z,18.20
2022-08-11T02:35:10.220Z,18.19
2022-08-11T02:36:09.455Z,18.16
2022-08-11T02:37:09.452Z,18.17
2022-08-11T02:38:09.747Z,18.21
2022-08-11T02:39:09.471Z,18.10
2022-08-11T02:40:16.231Z,18.13
2022-08-11T02:41:09.418Z,18.14
2022-08-11T02:42:35.165Z,18.17
2022-08-11T02:43:10.763Z,18.28
2022-08-11T02:44:12.230Z,18.17
2022-08-11T02:45:12.221Z,18.19
2022-08-11T02:46:09.392Z,18.14
2022-08-11T02:47:10.345Z,18.17
2022-08-11T02:48:09.349Z,18.14
2022-08-11T02:49:10.224Z,18.13
2022-08-11T02:50:09.304Z,18.14
2022-08-11T02:51:09.286Z,18.10
2022-08-11T02:52:10.227Z,18.10
2022-08-11T02:53:10.221Z,18.10
2022-08-11T02:54:09.280Z,18.02
2022-08-11T02:55:09.297Z,17.96
2022-08-11T02:56:09.238Z,17.98
2022-08-11T02:57:11.299Z,18.09
2022-08-11T02:58:09.728Z,18.01
2022-08-11T02:59:11.729Z,18.04
2022-08-11T03:00:09.193Z,17.98
2022-08-11T03:01:09.206Z,18.01
2022-08-11T03:02:15.727Z,17.95
2022-08-11T03:03:09.169Z,17.92
2022-08-11T03:04:09.170Z,17.92
2022-08-11T03:05:09.162Z,17.87
2022-08-11T03:06:09.722Z,17.98
2022-08-11T03:07:28.931Z,17.96
2022-08-11T03:08:10.110Z,17.89
2022-08-11T03:09:11.730Z,17.87
2022-08-11T03:10:09.088Z,17.87
2022-08-11T03:11:09.096Z,17.83
2022-08-11T03:12:09.733Z,17.76
2022-08-11T03:13:09.042Z,17.80
2022-08-11T03:14:09.033Z,17.76
2022-08-11T03:15:09.046Z,17.79
2022-08-11T03:16:10.084Z,17.76
2022-08-11T03:17:09.001Z,17.77
2022-08-11T03:18:09.038Z,17.79
2022-08-11T03:19:08.981Z,17.76
2022-08-11T03:20:09.263Z,17.79
2022-08-11T03:21:08.960Z,17.70
2022-08-11T03:22:08.953Z,17.76
2022-08-11T03:23:19.806Z,17.71
2022-08-11T03:24:08.928Z,17.66
2022-08-11T03:25:12.917Z,17.57
2022-08-11T03:26:08.909Z,17.62
2022-08-11T03:27:08.901Z,17.55
2022-08-11T03:28:08.886Z,17.51
2022-08-11T03:29:08.878Z,17.47
2022-08-11T03:30:08.882Z,17.54
2022-08-11T03:31:08.849Z,17.46
2022-08-11T03:32:08.842Z,17.47
2022-08-11T03:33:08.845Z,17.45
2022-08-11T03:34:08.830Z,17.53
2022-08-11T03:35:08.816Z,17.46
2022-08-11T03:36:08.820Z,17.53
2022-08-11T03:37:16.326Z,17.54
2022-08-11T03:38:09.780Z,17.57
2022-08-11T03:39:16.829Z,17.39
2022-08-11T03:40:08.769Z,17.45
2022-08-11T03:42:02.139Z,17.39
2022-08-11T03:42:10.394Z,17.38
2022-08-11T03:43:08.721Z,17.46
2022-08-11T03:44:08.730Z,17.53
2022-08-11T03:45:09.226Z,17.38
2022-08-11T03:46:08.720Z,17.51
2022-08-11T03:47:09.236Z,17.46
2022-08-11T03:48:08.665Z,17.54
2022-08-11T03:49:08.655Z,17.38
2022-08-11T03:50:23.231Z,17.42
2022-08-11T03:51:09.673Z,17.51
2022-08-11T03:52:08.636Z,17.45
2022-08-11T03:53:08.615Z,17.45
2022-08-11T03:54:08.601Z,17.45
2022-08-11T03:55:08.590Z,17.40
2022-08-11T03:56:08.598Z,17.25
2022-08-11T03:57:08.574Z,17.28
2022-08-11T03:58:08.757Z,17.28
2022-08-11T03:59:08.588Z,17.27
2022-08-11T04:00:08.534Z,17.27
2022-08-11T04:01:08.568Z,17.18
2022-08-11T04:02:08.521Z,17.15
2022-08-11T04:03:09.236Z,17.18
2022-08-11T04:04:08.497Z,17.17
2022-08-11T04:05:08.480Z,17.17
2022-08-11T04:06:08.475Z,17.25
2022-08-11T04:07:09.244Z,17.20
2022-08-11T04:08:09.443Z,17.24
2022-08-11T04:09:08.455Z,17.17
2022-08-11T04:10:08.427Z,17.20
2022-08-11T04:11:08.440Z,17.20
2022-08-11T04:12:08.402Z,17.12
2022-08-11T04:13:09.417Z,17.20
2022-08-11T04:14:08.381Z,17.18
2022-08-11T04:15:08.378Z,17.15
2022-08-11T04:16:11.105Z,17.18
2022-08-11T04:17:08.764Z,17.15
2022-08-11T04:18:08.340Z,17.15
2022-08-11T04:19:08.333Z,17.12
2022-08-11T04:20:08.337Z,17.18
2022-08-11T04:21:08.324Z,17.15
2022-08-11T04:22:08.291Z,17.12
2022-08-11T04:23:08.307Z,17.14
2022-08-11T04:24:34.527Z,17.09
2022-08-11T04:25:10.228Z,17.20
2022-08-11T04:26:18.510Z,17.17
2022-08-11T04:27:10.435Z,17.17
2022-08-11T04:28:28.957Z,17.17
2022-08-11T04:29:09.752Z,17.14
2022-08-11T04:30:11.957Z,17.14
2022-08-11T04:31:10.103Z,17.14
2022-08-11T04:32:08.194Z,17.15
2022-08-11T04:33:08.189Z,17.18
2022-08-11T04:34:08.194Z,17.15
2022-08-11T04:35:08.157Z,17.17
2022-08-11T04:36:22.747Z,17.18
2022-08-11T04:37:08.145Z,17.20
2022-08-11T04:38:08.130Z,17.14
2022-08-11T04:39:08.204Z,17.12
2022-08-11T04:40:08.097Z,17.15
2022-08-11T04:41:08.079Z,17.20
2022-08-11T04:42:08.081Z,17.20
2022-08-11T04:43:08.094Z,17.14
2022-08-11T04:44:08.067Z,17.14
2022-08-11T04:45:08.046Z,17.18
2022-08-11T04:46:08.031Z,17.17
2022-08-11T04:47:08.031Z,17.22
2022-08-11T04:48:08.008Z,17.21
2022-08-11T04:49:08.013Z,17.24
2022-08-11T04:50:08.008Z,17.22
2022-08-11T04:51:16.971Z,17.32
2022-08-11T04:52:09.756Z,17.35
2022-08-11T04:53:07.952Z,17.51
2022-08-11T04:54:07.938Z,17.45
2022-08-11T04:55:07.928Z,17.36
2022-08-11T04:56:07.955Z,17.40
2022-08-11T04:57:07.953Z,17.38
2022-08-11T04:58:07.907Z,17.46
2022-08-11T04:59:07.884Z,17.53
2022-08-11T05:00:07.897Z,17.42
2022-08-11T05:01:07.896Z,17.47
2022-08-11T05:02:16.990Z,17.39
2022-08-11T05:03:08.846Z,17.39
2022-08-11T05:04:07.836Z,17.42
2022-08-11T05:05:07.840Z,17.55
2022-08-11T05:06:07.809Z,17.49
2022-08-11T05:07:07.829Z,17.51
2022-08-11T05:08:07.792Z,17.49
2022-08-11T05:09:07.778Z,17.58
2022-08-11T05:10:07.786Z,17.60
2022-08-11T05:11:07.773Z,17.62
2022-08-11T05:12:07.748Z,17.76
2022-08-11T05:13:07.740Z,17.68
2022-08-11T05:14:07.745Z,17.70
2022-08-11T05:15:07.709Z,17.76
2022-08-11T05:16:07.702Z,17.66
2022-08-11T05:17:07.716Z,17.71
2022-08-11T05:18:07.679Z,17.73
2022-08-11T05:19:07.671Z,17.73
2022-08-11T05:20:07.679Z,17.87
2022-08-11T05:21:07.649Z,17.84
2022-08-11T05:22:07.641Z,17.89
2022-08-11T05:23:07.645Z,17.87
2022-08-11T05:24:07.615Z,17.96
2022-08-11T05:25:07.610Z,17.91
2022-08-11T05:26:44.378Z,17.92
2022-08-11T05:27:13.355Z,17.91
2022-08-11T05:28:08.567Z,17.89
2022-08-11T05:29:19.197Z,18.04
2022-08-11T05:30:08.580Z,18.02
2022-08-11T05:31:07.541Z,18.11
2022-08-11T05:32:07.525Z,18.07
2022-08-11T05:33:07.517Z,18.11
2022-08-11T05:34:07.489Z,18.10
2022-08-11T05:35:07.621Z,18.16
2022-08-11T05:36:07.560Z,18.11
2022-08-11T05:37:25.569Z,18.16
2022-08-11T05:38:08.472Z,18.25
2022-08-11T05:39:07.503Z,18.20
2022-08-11T05:40:07.491Z,18.32
2022-08-11T05:41:07.426Z,18.34
2022-08-11T05:42:29.784Z,18.36
2022-08-11T05:43:09.245Z,18.38
2022-08-11T05:44:20.282Z,18.36
2022-08-11T05:45:15.776Z,18.39
2022-08-11T05:46:12.812Z,18.49
2022-08-11T05:47:07.372Z,18.44
2022-08-11T05:48:07.363Z,18.56
2022-08-11T05:49:07.342Z,18.50
2022-08-11T05:50:07.346Z,18.54
2022-08-11T05:51:10.385Z,18.68
2022-08-11T05:52:12.985Z,18.62
2022-08-11T05:53:09.197Z,18.64
2022-08-11T05:54:07.293Z,18.68
2022-08-11T05:55:08.270Z,18.69
2022-08-11T05:56:08.260Z,18.79
2022-08-11T05:57:07.254Z,18.76
2022-08-11T05:58:07.237Z,18.89
2022-08-11T05:59:07.228Z,18.91
2022-08-11T06:00:07.217Z,18.93
2022-08-11T06:01:07.253Z,18.99
2022-08-11T06:02:07.206Z,19.02
2022-08-11T06:03:07.203Z,18.97
2022-08-11T06:04:07.185Z,19.06
2022-08-11T06:05:07.171Z,19.05
2022-08-11T06:06:07.156Z,19.16
2022-08-11T06:07:07.758Z,19.23
2022-08-11T06:08:07.129Z,19.13
2022-08-11T06:09:07.138Z,19.10
2022-08-11T06:10:07.110Z,19.20
2022-08-11T06:11:07.116Z,19.17
2022-08-11T06:12:07.086Z,19.27
2022-08-11T06:13:07.089Z,19.28
2022-08-11T06:14:07.063Z,19.38
2022-08-11T06:15:07.059Z,19.34
2022-08-11T06:16:07.341Z,19.42
2022-08-11T06:17:07.057Z,19.39
2022-08-11T06:18:07.012Z,19.43
2022-08-11T06:19:09.757Z,19.45
2022-08-11T06:20:07.612Z,19.50
2022-08-11T06:21:07.010Z,19.53
2022-08-11T06:22:06.981Z,19.57
2022-08-11T06:23:06.969Z,19.58
2022-08-11T06:24:06.955Z,19.64
2022-08-11T06:25:06.941Z,19.62
2022-08-11T06:26:06.951Z,19.67
2022-08-11T06:27:12.656Z,19.68
2022-08-11T06:28:07.905Z,19.67
2022-08-11T06:29:06.907Z,19.79
2022-08-11T06:30:06.888Z,19.80
2022-08-11T06:31:07.279Z,19.86
2022-08-11T06:32:06.871Z,19.90
2022-08-11T06:33:06.860Z,19.89
2022-08-11T06:34:07.288Z,19.90
2022-08-11T06:35:06.836Z,20.07
2022-08-11T06:36:06.844Z,19.98
2022-08-11T06:37:06.811Z,20.12
2022-08-11T06:38:06.810Z,20.13
2022-08-11T06:39:07.759Z,20.08
2022-08-11T06:40:06.780Z,20.20
2022-08-11T06:41:06.766Z,20.23
2022-08-11T06:42:06.780Z,20.23
2022-08-11T06:43:06.746Z,20.33
2022-08-11T06:44:06.742Z,20.35
2022-08-11T06:45:06.725Z,20.37
2022-08-11T06:46:06.719Z,20.44
2022-08-11T06:47:06.785Z,20.53
2022-08-11T06:48:06.702Z,20.56
2022-08-11T06:49:06.699Z,20.63
2022-08-11T06:50:06.677Z,20.68
2022-08-11T06:51:06.666Z,20.71
2022-08-11T06:52:06.650Z,20.78
2022-08-11T06:53:06.644Z,20.76
2022-08-11T06:54:07.264Z,20.78
2022-08-11T06:55:06.694Z,20.94
2022-08-11T06:56:09.263Z,20.94
2022-08-11T06:57:29.266Z,20.90
2022-08-11T06:58:07.588Z,20.88
2022-08-11T06:59:07.636Z,21.03
2022-08-11T07:00:06.578Z,21.03
2022-08-11T07:01:06.612Z,21.01
2022-08-11T07:02:09.257Z,21.06
2022-08-11T07:03:06.540Z,21.08
2022-08-11T07:04:06.534Z,21.16
2022-08-11T07:05:06.509Z,21.21
2022-08-11T07:06:06.500Z,21.30
2022-08-11T07:07:06.482Z,21.34
2022-08-11T07:08:33.874Z,21.38
2022-08-11T07:09:07.493Z,21.37
2022-08-11T07:10:06.468Z,21.40
2022-08-11T07:11:06.445Z,21.36
2022-08-11T07:12:06.441Z,21.43
2022-08-11T07:13:06.425Z,21.52
2022-08-11T07:14:06.397Z,21.49
2022-08-11T07:15:06.401Z,21.64
2022-08-11T07:16:12.580Z,21.59
2022-08-11T07:17:07.376Z,21.61
2022-08-11T07:18:06.356Z,21.82
2022-08-11T07:19:06.347Z,21.93
2022-08-11T07:20:07.260Z,21.96
2022-08-11T07:21:06.339Z,22.02
2022-08-11T07:22:07.322Z,22.04
2022-08-11T07:23:06.329Z,22.09
2022-08-11T07:24:06.294Z,22.14
2022-08-11T07:25:06.294Z,22.20
2022-08-11T07:26:06.270Z,22.30
2022-08-11T07:27:06.268Z,22.36
2022-08-11T07:28:06.257Z,22.36
2022-08-11T07:29:06.266Z,22.33
2022-08-11T07:30:06.237Z,22.38
2022-08-11T07:31:06.218Z,22.42
2022-08-11T07:32:06.201Z,22.38
2022-08-11T07:33:06.192Z,22.42
2022-08-11T07:34:11.174Z,22.31
2022-08-11T07:35:07.193Z,22.41
2022-08-11T07:36:06.183Z,22.42
2022-08-11T07:37:06.157Z,22.42
2022-08-11T07:38:07.265Z,22.44
2022-08-11T07:39:06.131Z,22.48
2022-08-11T07:40:06.155Z,22.54
2022-08-11T07:41:06.106Z,22.54
2022-08-11T07:42:06.129Z,22.57
2022-08-11T07:43:06.097Z,22.63
2022-08-11T07:44:06.080Z,22.67
2022-08-11T07:45:06.070Z,22.86
2022-08-11T07:46:06.783Z,22.94
2022-08-11T07:47:06.071Z,23.06
2022-08-11T07:48:06.047Z,23.09
2022-08-11T07:49:06.031Z,23.00
2022-08-11T07:50:06.019Z,23.12
2022-08-11T07:51:06.777Z,23.16
2022-08-11T07:52:06.006Z,23.12
2022-08-11T07:53:05.976Z,23.18
2022-08-11T07:54:16.083Z,23.09
2022-08-11T07:55:07.790Z,23.00
2022-08-11T07:56:05.953Z,23.14
2022-08-11T07:57:09.536Z,23.22
2022-08-11T07:58:16.613Z,23.18
2022-08-11T07:59:08.363Z,23.09
2022-08-11T08:00:05.921Z,23.15
2022-08-11T08:01:09.873Z,23.18
2022-08-11T08:02:08.826Z,23.25
2022-08-11T08:03:05.876Z,23.29
2022-08-11T08:04:05.879Z,23.39
2022-08-11T08:05:05.847Z,23.47
2022-08-11T08:06:05.834Z,23.50
2022-08-11T08:07:06.818Z,23.57
2022-08-11T08:08:05.848Z,23.54
2022-08-11T08:09:06.312Z,23.64
2022-08-11T08:10:05.804Z,23.63
2022-08-11T08:11:05.798Z,23.64
2022-08-11T08:12:05.779Z,23.69
2022-08-11T08:13:05.758Z,23.74
2022-08-11T08:14:05.751Z,23.74
2022-08-11T08:15:05.817Z,23.79
2022-08-11T08:16:05.731Z,23.82
2022-08-11T08:17:05.718Z,23.90
2022-08-11T08:18:09.015Z,24.00
2022-08-11T08:19:06.695Z,23.94
2022-08-11T08:20:05.705Z,23.99
2022-08-11T08:21:05.671Z,24.05
2022-08-11T08:22:37.818Z,24.21
2022-08-11T08:23:06.810Z,24.42
2022-08-11T08:24:05.641Z,24.37
2022-08-11T08:25:05.630Z,24.34
2022-08-11T08:26:16.857Z,24.37
2022-08-11T08:27:13.276Z,24.26
2022-08-11T08:28:05.616Z,24.30
2022-08-11T08:29:05.621Z,24.29
2022-08-11T08:30:05.579Z,24.29
2022-08-11T08:31:05.564Z,24.37
2022-08-11T08:32:05.568Z,24.44
2022-08-11T08:33:05.579Z,24.48
2022-08-11T08:34:05.552Z,24.49
2022-08-11T08:35:05.597Z,24.61
2022-08-11T08:36:05.519Z,24.67
2022-08-11T08:37:16.009Z,24.64
2022-08-11T08:38:06.518Z,24.70
2022-08-11T08:39:05.490Z,24.64
2022-08-11T08:40:05.475Z,24.80
2022-08-11T08:41:05.457Z,25.08
2022-08-11T08:42:06.278Z,25.17
2022-08-11T08:43:05.442Z,25.27
2022-08-11T08:45:06.418Z,25.39
2022-08-11T08:46:05.436Z,25.31
2022-08-11T08:47:05.397Z,25.27
2022-08-11T08:48:05.391Z,25.27
2022-08-11T08:49:05.373Z,25.31
2022-08-11T08:50:05.812Z,25.19
2022-08-11T08:51:07.986Z,25.22
2022-08-11T08:52:27.799Z,25.08
2022-08-11T08:53:07.284Z,25.08
2022-08-11T08:54:05.344Z,25.08
2022-08-11T08:55:06.278Z,25.07
2022-08-11T08:56:05.309Z,25.05
2022-08-11T08:57:05.435Z,25.08
2022-08-11T08:58:05.788Z,25.07
2022-08-11T08:59:05.261Z,25.14
2022-08-11T09:00:05.306Z,25.12
2022-08-11T09:01:05.319Z,25.14
2022-08-11T09:02:05.234Z,25.12
2022-08-11T09:03:22.978Z,25.19
2022-08-11T09:04:11.383Z,25.20
2022-08-11T09:05:06.207Z,25.29
2022-08-11T09:06:05.191Z,25.29
2022-08-11T09:07:05.177Z,25.41
2022-08-11T09:08:05.161Z,25.49
2022-08-11T09:09:05.154Z,25.56
2022-08-11T09:10:05.139Z,25.74
2022-08-11T09:11:05.170Z,25.82
2022-08-11T09:12:05.123Z,25.81
2022-08-11T09:13:05.120Z,25.82
2022-08-11T09:14:09.260Z,25.85
2022-08-11T09:15:06.080Z,25.76
2022-08-11T09:16:07.789Z,25.69
2022-08-11T09:17:05.080Z,25.74
2022-08-11T09:18:05.054Z,25.71
2022-08-11T09:19:05.049Z,25.81
2022-08-11T09:20:05.030Z,25.85
2022-08-11T09:21:05.805Z,25.83
2022-08-11T09:22:05.003Z,25.90
2022-08-11T09:24:13.094Z,26.32
2022-08-11T09:25:05.972Z,26.42
2022-08-11T09:26:04.973Z,26.51
2022-08-11T09:27:04.947Z,26.42
2022-08-11T09:28:05.796Z,26.59
2022-08-11T09:29:05.820Z,26.69
2022-08-11T09:30:05.798Z,26.71
2022-08-11T09:31:07.791Z,26.79
2022-08-11T09:32:04.911Z,26.88
2022-08-11T09:33:04.952Z,26.87
2022-08-11T09:34:04.921Z,26.91
2022-08-11T09:35:04.884Z,26.78
2022-08-11T09:36:04.869Z,26.87
2022-08-11T09:37:04.842Z,26.87
2022-08-11T09:38:04.839Z,26.88
2022-08-11T09:39:04.889Z,26.88
2022-08-11T09:40:04.832Z,26.84
2022-08-11T09:41:04.805Z,26.90
2022-08-11T09:42:04.792Z,27.01
2022-08-11T09:43:04.784Z,27.03
2022-08-11T09:44:04.790Z,27.23
2022-08-11T09:45:04.776Z,27.31
2022-08-11T09:46:04.761Z,27.40
2022-08-11T09:47:04.743Z,27.49
2022-08-11T09:48:04.729Z,27.69
2022-08-11T09:49:04.711Z,27.83
2022-08-11T09:50:04.718Z,27.84
2022-08-11T09:51:04.714Z,27.91
2022-08-11T09:52:05.448Z,27.98
2022-08-11T09:53:37.343Z,28.02
2022-08-11T09:54:05.658Z,28.05
2022-08-11T09:55:04.652Z,28.14
2022-08-11T09:56:04.653Z,28.18
2022-08-11T09:57:05.477Z,28.25
2022-08-11T09:58:04.625Z,28.32
2022-08-11T09:59:04.627Z,28.24
2022-08-11T10:00:12.762Z,28.24
2022-08-11T10:01:08.381Z,28.30
2022-08-11T10:02:04.607Z,28.20
2022-08-11T10:03:04.564Z,28.20
2022-08-11T10:04:04.577Z,28.25
2022-08-11T10:05:04.526Z,28.23
2022-08-11T10:06:07.845Z,28.20
2022-08-11T10:07:05.108Z,28.32
2022-08-11T10:08:04.520Z,28.39
2022-08-11T10:09:04.518Z,28.48
2022-08-11T10:10:04.493Z,28.48
2022-08-11T10:11:04.476Z,28.54
2022-08-11T10:12:04.466Z,28.54
2022-08-11T10:13:04.459Z,28.48
2022-08-11T10:14:32.253Z,28.65
2022-08-11T10:15:05.484Z,28.70
2022-08-11T10:16:16.397Z,28.64
2022-08-11T10:17:05.416Z,28.65
2022-08-11T10:18:04.415Z,28.83
2022-08-11T10:19:04.392Z,28.89
2022-08-11T10:20:05.909Z,28.88
2022-08-11T10:21:04.399Z,28.79
2022-08-11T10:22:05.307Z,28.79
2022-08-11T10:23:04.359Z,28.76
2022-08-11T10:24:06.019Z,28.85
2022-08-11T10:25:04.329Z,29.03
2022-08-11T10:26:04.336Z,29.00
2022-08-11T10:27:07.305Z,29.11
2022-08-11T10:28:28.866Z,29.18
2022-08-11T10:29:13.058Z,29.21
2022-08-11T10:30:05.277Z,29.32
2022-08-11T10:31:04.812Z,29.25
2022-08-11T10:32:04.802Z,29.44
2022-08-11T10:33:18.968Z,29.41
2022-08-11T10:34:08.821Z,29.47
2022-08-11T10:35:04.244Z,29.51
2022-08-11T10:36:16.605Z,29.41
2022-08-11T10:37:05.805Z,29.27
2022-08-11T10:38:08.622Z,29.41
2022-08-11T10:39:05.189Z,29.69
2022-08-11T10:40:04.177Z,29.73
2022-08-11T10:41:04.345Z,29.74
2022-08-11T10:42:09.603Z,29.73
2022-08-11T10:43:05.154Z,29.92
2022-08-11T10:44:04.303Z,29.84
2022-08-11T10:45:04.128Z,29.99
2022-08-11T10:46:04.355Z,30.11
2022-08-11T10:47:04.123Z,30.15
2022-08-11T10:48:04.089Z,30.19
2022-08-11T10:49:04.817Z,30.23
2022-08-11T10:50:05.222Z,30.11
2022-08-11T10:51:04.852Z,30.11
2022-08-11T10:52:04.047Z,30.13
2022-08-11T10:53:04.046Z,29.92
2022-08-11T10:54:04.838Z,29.91
2022-08-11T10:55:04.023Z,30.07
2022-08-11T10:57:04.026Z,30.29
2022-08-11T10:58:04.271Z,30.21
2022-08-11T10:59:04.819Z,30.34
2022-08-11T11:00:04.333Z,30.36
2022-08-11T11:01:04.043Z,30.30
2022-08-11T11:02:04.335Z,30.29
2022-08-11T11:03:16.772Z,30.30
2022-08-11T11:04:04.913Z,30.11
2022-08-11T11:05:04.816Z,30.18
2022-08-11T11:06:28.728Z,30.03
2022-08-11T11:07:05.813Z,30.13
2022-08-11T11:08:03.899Z,30.16
2022-08-11T11:09:04.973Z,30.26
2022-08-11T11:10:03.856Z,30.22
2022-08-11T11:11:03.842Z,30.10
2022-08-11T11:12:03.839Z,30.08
2022-08-11T11:13:03.854Z,30.01
2022-08-11T11:14:03.815Z,30.04
2022-08-11T11:15:10.317Z,30.10
2022-08-11T11:16:04.795Z,30.19
2022-08-11T11:17:03.763Z,30.34
2022-08-11T11:18:03.765Z,30.45
2022-08-11T11:19:03.785Z,30.38
2022-08-11T11:20:03.753Z,30.51
2022-08-11T11:21:03.732Z,30.59
2022-08-11T11:22:10.321Z,30.59
2022-08-11T11:23:03.708Z,30.67
2022-08-11T11:24:03.706Z,30.91
2022-08-11T11:25:03.842Z,30.78
2022-08-11T11:26:03.705Z,30.75
2022-08-11T11:27:06.315Z,30.79
2022-08-11T11:28:03.655Z,30.90
2022-08-11T11:29:03.653Z,31.03
2022-08-11T11:30:03.650Z,31.15
2022-08-11T11:31:03.862Z,31.10
2022-08-11T11:32:03.613Z,31.18
2022-08-11T11:33:03.608Z,31.13
2022-08-11T11:34:06.507Z,30.93
2022-08-11T11:35:05.325Z,30.91
2022-08-11T11:36:03.849Z,30.96
2022-08-11T11:37:03.585Z,31.10
2022-08-11T11:38:08.371Z,31.18
2022-08-11T11:39:10.395Z,31.32
2022-08-11T11:40:10.335Z,31.27
2022-08-11T11:41:03.526Z,31.31
2022-08-11T11:42:03.527Z,31.42
2022-08-11T11:43:03.509Z,31.46
2022-08-11T11:44:04.328Z,31.47
2022-08-11T11:45:03.481Z,31.46
2022-08-11T11:46:03.473Z,31.49
2022-08-11T11:47:03.463Z,31.45
2022-08-11T11:48:03.451Z,31.41
2022-08-11T11:49:03.449Z,31.50
2022-08-11T11:50:04.430Z,31.41
2022-08-11T11:51:03.406Z,31.41
2022-08-11T11:52:03.408Z,31.56
2022-08-11T11:53:03.416Z,31.67
2022-08-11T11:54:03.390Z,31.62
2022-08-11T11:55:03.401Z,31.59
2022-08-11T11:56:03.372Z,31.65
2022-08-11T11:57:04.322Z,31.79
2022-08-11T11:58:03.352Z,31.94
2022-08-11T11:59:03.331Z,31.95
2022-08-11T12:00:03.331Z,32.03
2022-08-11T12:01:03.365Z,32.02
2022-08-11T12:02:11.640Z,32.05
2022-08-11T12:03:04.302Z,32.05
2022-08-11T12:04:03.293Z,32.07
2022-08-11T12:05:03.359Z,32.09
2022-08-11T12:06:03.262Z,31.88
2022-08-11T12:07:03.262Z,31.69
2022-08-11T12:08:05.285Z,31.72
2022-08-11T12:09:04.237Z,31.76
2022-08-11T12:10:03.227Z,31.92
2022-08-11T12:11:03.233Z,32.06
2022-08-11T12:12:03.202Z,32.06
2022-08-11T12:13:03.188Z,32.16
2022-08-11T12:14:03.180Z,32.35
2022-08-11T12:15:04.168Z,32.39
2022-08-11T12:16:32.826Z,32.36
2022-08-11T12:17:04.166Z,32.36
2022-08-11T12:18:03.144Z,32.43
2022-08-11T12:19:03.128Z,32.36
2022-08-11T12:20:03.119Z,32.36
2022-08-11T12:21:03.099Z,32.02
2022-08-11T12:22:03.117Z,31.98
2022-08-11T12:23:03.083Z,32.06
2022-08-11T12:24:04.601Z,32.10
2022-08-11T12:25:03.072Z,32.32
2022-08-11T12:26:26.520Z,32.39
2022-08-11T12:27:19.361Z,32.36
2022-08-11T12:28:03.034Z,32.25
2022-08-11T12:29:03.037Z,32.21
2022-08-11T12:30:05.878Z,32.22
2022-08-11T12:31:04.043Z,32.27
2022-08-11T12:32:02.999Z,32.35
2022-08-11T12:33:02.983Z,32.14
2022-08-11T12:34:02.981Z,32.17
2022-08-11T12:35:02.978Z,32.09
2022-08-11T12:36:02.959Z,32.07
2022-08-11T12:37:02.968Z,32.17
2022-08-11T12:38:09.450Z,32.24
2022-08-11T12:39:06.145Z,32.13
2022-08-11T12:40:16.478Z,32.03
2022-08-11T12:41:19.393Z,31.94
2022-08-11T12:42:04.026Z,32.07
2022-08-11T12:43:03.996Z,32.24
2022-08-11T12:44:02.904Z,32.43
2022-08-11T12:45:02.877Z,32.63
2022-08-11T12:46:02.867Z,32.77
2022-08-11T12:47:02.846Z,32.83
2022-08-11T12:48:57.795Z,32.99
2022-08-11T12:49:04.099Z,33.02
2022-08-11T12:50:02.810Z,33.28
2022-08-11T12:51:02.819Z,33.28
2022-08-11T12:52:13.023Z,33.09
2022-08-11T12:53:03.790Z,32.99
2022-08-11T12:54:02.793Z,32.84
2022-08-11T12:55:02.795Z,32.39